createdAt,value
2022-11-14T00:01:44.874Z,7.70
2022-11-14T00:04:29.388Z,8.33
2022-11-14T00:07:10.214Z,8.18
2022-11-14T00:09:50.699Z,8.00
2022-11-14T00:12:31.388Z,8.70
2022-11-14T00:15:13.695Z,8.30
2022-11-14T00:17:55.197Z,9.20
2022-11-14T00:20:36.273Z,9.17
2022-11-14T00:23:17.320Z,8.97
2022-11-14T00:25:58.137Z,8.70
2022-11-14T00:28:38.444Z,9.03
2022-11-14T00:31:18.949Z,8.80
2022-11-14T00:33:59.497Z,8.87
2022-11-14T00:36:40.164Z,8.67
2022-11-14T00:39:20.601Z,8.67
2022-11-14T00:42:01.565Z,8.37
2022-11-14T00:44:41.835Z,9.10
2022-11-14T00:47:22.560Z,8.37
2022-11-14T00:50:04.235Z,8.87
2022-11-14T00:52:44.783Z,9.10
2022-11-14T00:55:25.549Z,8.90
2022-11-14T00:58:06.194Z,9.00
2022-11-14T01:00:47.850Z,9.17
2022-11-14T01:03:28.710Z,10.23
2022-11-14T01:06:11.697Z,11.00
2022-11-14T01:08:52.859Z,10.63
2022-11-14T01:11:33.252Z,10.40
2022-11-14T01:14:13.900Z,10.87
2022-11-14T01:16:54.664Z,10.87
2022-11-14T01:19:35.511Z,11.43
2022-11-14T01:22:15.941Z,11.47
2022-11-14T01:24:58.519Z,10.60
2022-11-14T01:27:39.130Z,10.93
2022-11-14T01:30:19.701Z,11.03
2022-11-14T01:33:00.386Z,10.07
2022-11-14T01:35:41.053Z,10.07
2022-11-14T01:38:21.635Z,11.23
2022-11-14T01:41:03.627Z,10.30
2022-11-14T01:43:44.396Z,11.83
2022-11-14T01:46:54.511Z,12.83
2022-11-14T01:49:42.826Z,12.33
2022-11-14T01:52:30.782Z,12.53
2022-11-14T01:55:11.904Z,11.57
2022-11-14T01:57:52.697Z,12.00
2022-11-14T02:00:33.634Z,11.83
2022-11-14T02:03:17.082Z,11.43
2022-11-14T02:05:58.949Z,11.97
2022-11-14T02:08:42.538Z,11.77
2022-11-14T02:11:23.789Z,13.57
2022-11-14T02:14:06.857Z,12.50
2022-11-14T02:17:14.346Z,13.27
2022-11-14T02:20:11.825Z,13.40
2022-11-14T02:22:52.405Z,13.40
2022-11-14T02:25:32.755Z,14.17
2022-11-14T02:28:12.988Z,13.57
2022-11-14T02:30:54.412Z,13.63
2022-11-14T02:33:35.068Z,14.10
2022-11-14T02:36:15.640Z,14.17
2022-11-14T02:38:56.248Z,13.97
2022-11-14T02:41:36.886Z,13.83
2022-11-14T02:44:19.416Z,14.33
2022-11-14T02:46:59.696Z,14.87
2022-11-14T02:49:40.285Z,15.37
2022-11-14T02:52:22.178Z,14.60
2022-11-14T02:55:05.353Z,15.50
2022-11-14T02:57:46.898Z,15.00
2022-11-14T03:00:27.781Z,15.17
2022-11-14T03:03:08.404Z,16.23
2022-11-14T03:05:49.134Z,15.83
2022-11-14T03:08:30.030Z,14.87
2022-11-14T03:11:11.341Z,15.60
2022-11-14T03:13:51.914Z,15.30
2022-11-14T03:16:32.497Z,15.17
2022-11-14T03:19:13.939Z,15.03
2022-11-14T03:21:54.744Z,15.47
2022-11-14T03:24:35.222Z,15.60
2022-11-14T03:27:17.178Z,16.10
2022-11-14T03:29:57.819Z,15.50
2022-11-14T03:32:38.957Z,14.83
2022-11-14T03:35:19.591Z,14.83
2022-11-14T03:38:00.194Z,14.30
2022-11-14T03:40:41.260Z,15.97
2022-11-14T03:43:22.260Z,16.23
2022-11-14T03:46:04.461Z,16.60
2022-11-14T03:48:46.322Z,15.50
2022-11-14T03:51:27.106Z,15.27
2022-11-14T03:54:07.904Z,15.73
2022-11-14T03:56:48.745Z,15.70
2022-11-14T03:59:29.408Z,15.63
2022-11-14T04:02:10.101Z,15.67
2022-11-14T04:04:50.701Z,16.83
2022-11-14T04:07:31.451Z,16.57
2022-11-14T04:10:12.281Z,16.20
2022-11-14T04:12:54.681Z,17.10
2022-11-14T04:15:36.570Z,16.97
2022-11-14T04:18:37.612Z,15.90
2022-11-14T04:21:20.415Z,15.80
2022-11-14T04:24:12.614Z,16.07
2022-11-14T04:26:53.817Z,15.77
2022-11-14T04:29:34.880Z,16.00
2022-11-14T04:32:15.774Z,16.00
2022-11-14T04:34:56.415Z,15.63
2022-11-14T04:37:38.850Z,16.03
2022-11-14T04:40:19.617Z,16.03
2022-11-14T04:43:00.569Z,16.93
2022-11-14T04:45:41.732Z,15.70
2022-11-14T04:48:22.569Z,15.13
2022-11-14T04:51:02.978Z,16.97
2022-11-14T04:53:43.651Z,15.27
2022-11-14T04:56:25.732Z,15.93
2022-11-14T04:59:06.308Z,15.90
2022-11-14T05:01:46.818Z,16.23
2022-11-14T05:04:27.639Z,16.73
2022-11-14T05:07:08.389Z,15.93
2022-11-14T05:09:49.687Z,16.23
2022-11-14T05:12:31.033Z,15.57
2022-11-14T05:15:12.139Z,15.57
2022-11-14T05:17:52.707Z,16.43
2022-11-14T05:20:33.550Z,16.50
2022-11-14T05:23:22.231Z,16.37
2022-11-14T05:26:16.286Z,16.40
2022-11-14T05:28:58.671Z,16.57
2022-11-14T05:31:39.465Z,17.33
2022-11-14T05:34:20.596Z,16.67
2022-11-14T05:37:04.006Z,16.93
2022-11-14T05:39:44.427Z,16.87
2022-11-14T05:42:25.166Z,17.20
2022-11-14T05:45:08.436Z,17.53
2022-11-14T05:47:49.444Z,16.83
2022-11-14T05:50:31.335Z,17.33
2022-11-14T05:53:12.406Z,17.83
2022-11-14T05:55:53.069Z,16.10
2022-11-14T05:58:36.440Z,17.13
2022-11-14T06:01:19.935Z,17.37
2022-11-14T06:04:00.745Z,17.10
2022-11-14T06:06:48.281Z,17.07
2022-11-14T06:09:52.754Z,17.63
2022-11-14T06:12:48.653Z,17.77
2022-11-14T06:15:36.684Z,18.20
2022-11-14T06:23:31.357Z,16.40
2022-11-14T06:26:34.416Z,16.23
2022-11-14T06:32:13.210Z,16.33
2022-11-14T06:34:54.086Z,17.10
2022-11-14T06:37:40.510Z,17.27
2022-11-14T06:44:29.474Z,16.40
2022-11-14T06:47:11.799Z,16.40
2022-11-14T06:49:52.806Z,16.73
2022-11-14T06:52:33.756Z,16.97
2022-11-14T06:55:14.816Z,16.50
2022-11-14T06:57:55.991Z,15.07
2022-11-14T07:00:36.889Z,14.93
2022-11-14T07:08:33.168Z,16.00
2022-11-14T07:11:28.313Z,15.63
2022-11-14T07:14:10.508Z,14.85
2022-11-14T07:16:53.850Z,15.63
2022-11-14T07:19:35.240Z,14.63
2022-11-14T07:22:16.066Z,16.30
2022-11-14T07:24:56.724Z,18.03
2022-11-14T07:27:37.801Z,15.03
2022-11-14T07:30:18.873Z,15.93
2022-11-14T07:33:00.506Z,15.37
2022-11-14T08:36:16.271Z,11.80
2022-11-14T08:42:41.921Z,11.27
2022-11-14T08:52:53.940Z,10.90
2022-11-14T08:55:37.070Z,10.50
2022-11-14T09:02:31.738Z,11.23
2022-11-14T09:05:13.892Z,11.33
2022-11-14T09:07:54.323Z,11.40
2022-11-14T09:10:35.178Z,10.83
2022-11-14T09:13:17.548Z,11.47
2022-11-14T09:16:49.615Z,11.67
2022-11-14T09:19:32.965Z,11.23
2022-11-14T09:22:14.899Z,11.13
2022-11-14T09:25:03.828Z,12.13
2022-11-14T09:33:19.528Z,11.03
2022-11-14T09:36:04.492Z,11.83
2022-11-14T09:38:46.286Z,11.40
2022-11-14T09:42:22.919Z,11.00
2022-11-14T09:45:12.466Z,11.20
2022-11-14T09:48:13.211Z,11.70
2022-11-14T09:51:15.750Z,12.50
2022-11-14T09:54:17.405Z,12.93
2022-11-14T09:56:57.941Z,12.73
2022-11-14T09:59:38.295Z,12.53
2022-11-14T10:02:57.249Z,13.40
2022-11-14T10:06:02.640Z,12.40
2022-11-14T10:09:13.824Z,13.05
2022-11-14T10:12:09.462Z,13.50
2022-11-14T10:14:55.598Z,14.95
2022-11-14T10:18:23.540Z,14.07
2022-11-14T10:21:23.938Z,13.93
2022-11-14T10:24:51.740Z,15.23
2022-11-14T10:27:55.370Z,14.40
2022-11-14T10:30:52.104Z,15.80
2022-11-14T10:33:57.648Z,15.10
2022-11-14T10:36:59.535Z,16.85
2022-11-14T10:39:50.940Z,15.60
2022-11-14T10:42:43.435Z,17.03
2022-11-14T10:45:42.718Z,17.50
2022-11-14T10:48:39.885Z,17.00
2022-11-14T10:51:37.852Z,17.60
2022-11-14T10:54:25.732Z,21.27
2022-11-14T10:57:17.821Z,22.23
2022-11-14T10:59:58.065Z,25.20
2022-11-14T11:02:54.891Z,24.90
2022-11-14T11:05:52.308Z,24.63
2022-11-14T11:09:00.675Z,27.27
2022-11-14T11:11:56.839Z,23.90
2022-11-14T11:14:40.012Z,26.45
2022-11-14T11:17:23.329Z,28.27
2022-11-14T11:20:23.714Z,26.27
2022-11-14T11:23:10.444Z,25.83
2022-11-14T11:26:07.913Z,25.60
2022-11-14T11:29:10.340Z,24.20
2022-11-14T11:31:58.323Z,24.63
2022-11-14T11:34:39.194Z,25.77
2022-11-14T11:37:40.264Z,25.07
2022-11-14T11:40:25.967Z,25.63
2022-11-14T11:43:42.089Z,23.57
2022-11-14T11:46:44.974Z,25.75
2022-11-14T11:49:48.674Z,22.43
2022-11-14T11:52:56.705Z,22.07
2022-11-14T11:56:22.788Z,21.20
2022-11-14T11:59:40.902Z,21.58
2022-11-14T12:02:27.361Z,21.67
2022-11-14T12:05:17.645Z,21.10
2022-11-14T12:08:24.649Z,22.63
2022-11-14T12:11:14.976Z,22.13
2022-11-14T12:14:49.116Z,20.47
2022-11-14T12:17:48.052Z,21.90
2022-11-14T12:21:02.450Z,21.10
2022-11-14T12:23:59.037Z,20.63
2022-11-14T12:26:48.666Z,20.80
2022-11-14T12:30:16.908Z,20.83
2022-11-14T12:33:12.735Z,19.83
2022-11-14T12:38:51.086Z,20.10
2022-11-14T12:41:38.119Z,19.53
2022-11-14T12:44:28.053Z,20.07
2022-11-14T12:47:08.514Z,19.70
2022-11-14T12:49:49.552Z,19.20
2022-11-14T12:52:49.522Z,20.20
2022-11-14T12:55:29.772Z,19.60
2022-11-14T12:58:49.786Z,19.80
2022-11-14T13:01:30.483Z,18.17
2022-11-14T13:05:01.434Z,18.87
2022-11-14T13:08:05.684Z,19.03
2022-11-14T13:10:52.490Z,18.77
2022-11-14T13:14:22.114Z,18.30
2022-11-14T13:17:37.744Z,18.40
2022-11-14T13:20:50.298Z,19.10
2022-11-14T13:23:30.936Z,18.83
2022-11-14T13:26:11.727Z,17.47
2022-11-14T13:28:53.935Z,18.83
2022-11-14T13:31:37.467Z,17.43
2022-11-14T13:35:13.863Z,17.23
2022-11-14T13:38:19.696Z,19.58
2022-11-14T13:41:46.251Z,17.67
2022-11-14T13:45:05.203Z,19.23
2022-11-14T13:48:13.178Z,19.70
2022-11-14T13:51:15.567Z,18.17
2022-11-14T13:54:17.693Z,16.67
2022-11-14T13:57:20.575Z,18.40
2022-11-14T14:00:19.759Z,17.33
2022-11-14T14:03:06.818Z,18.43
2022-11-14T14:06:29.408Z,18.07
2022-11-14T14:09:24.820Z,19.00
2022-11-14T14:12:30.480Z,17.98
2022-11-14T14:15:43.755Z,19.50
2022-11-14T14:18:50.744Z,18.87
2022-11-14T14:21:49.822Z,21.33
2022-11-14T14:24:58.924Z,22.83
2022-11-14T14:28:10.712Z,20.10
2022-11-14T14:31:04.616Z,18.53
2022-11-14T14:33:51.241Z,20.03
2022-11-14T14:36:31.995Z,19.60
2022-11-14T14:39:20.021Z,25.27
2022-11-14T14:42:00.749Z,25.53
2022-11-14T14:44:41.385Z,26.20
2022-11-14T14:47:33.437Z,23.47
2022-11-14T14:50:29.900Z,21.90
2022-11-14T14:53:27.810Z,23.73
2022-11-14T14:56:25.060Z,21.90
2022-11-14T14:59:21.916Z,22.50
2022-11-14T15:02:03.213Z,22.73
2022-11-14T15:04:44.091Z,21.00
2022-11-14T15:07:29.215Z,22.03
2022-11-14T15:10:24.213Z,19.67
2022-11-14T15:13:05.480Z,20.88
2022-11-14T15:15:46.261Z,22.00
2022-11-14T15:18:31.667Z,20.30
2022-11-14T15:21:24.863Z,20.87
2022-11-14T15:24:21.962Z,20.77
2022-11-14T15:27:16.765Z,19.03
2022-11-14T15:30:04.675Z,18.52
2022-11-14T15:32:55.221Z,17.97
2022-11-14T15:35:40.398Z,17.27
2022-11-14T15:41:28.045Z,18.57
2022-11-14T15:44:34.720Z,16.77
2022-11-14T15:47:37.147Z,18.80
2022-11-14T15:50:17.996Z,17.20
2022-11-14T15:53:26.159Z,17.40
2022-11-14T15:56:12.465Z,16.63
2022-11-14T15:58:53.038Z,15.37
2022-11-14T16:01:33.323Z,16.77
2022-11-14T16:04:21.625Z,16.20
2022-11-14T16:07:02.024Z,14.67
2022-11-14T16:09:43.333Z,15.40
2022-11-14T16:12:24.063Z,15.33
2022-11-14T16:15:04.887Z,15.33
2022-11-14T16:17:49.511Z,15.30
2022-11-14T16:20:36.162Z,14.50
2022-11-14T16:23:16.661Z,14.70
2022-11-14T16:25:57.237Z,15.80
2022-11-14T16:28:37.537Z,15.27
2022-11-14T16:31:18.343Z,15.97
2022-11-14T16:33:58.842Z,16.07
2022-11-14T16:36:39.857Z,15.33
2022-11-14T16:39:20.164Z,15.90
2022-11-14T16:42:04.668Z,15.80
2022-11-14T16:44:50.323Z,14.75
2022-11-14T16:47:37.018Z,15.47
2022-11-14T16:50:19.861Z,15.67
2022-11-14T16:53:00.063Z,15.33
2022-11-14T16:55:45.262Z,15.60
2022-11-14T16:58:25.959Z,14.88
2022-11-14T17:01:11.603Z,15.23
2022-11-14T17:03:54.227Z,15.83
2022-11-14T17:06:34.649Z,15.73
2022-11-14T17:09:15.448Z,14.97
2022-11-14T17:11:55.760Z,15.50
2022-11-14T17:14:36.505Z,15.03
2022-11-14T17:17:17.282Z,14.80
2022-11-14T17:19:57.729Z,15.07
2022-11-14T17:22:38.264Z,14.73
2022-11-14T17:25:18.966Z,14.43
2022-11-14T17:27:59.613Z,15.70
2022-11-14T17:30:43.639Z,15.53
2022-11-14T17:33:24.097Z,15.53
2022-11-14T17:36:10.877Z,16.03
2022-11-14T17:38:51.933Z,15.20
2022-11-14T17:41:33.608Z,15.53
2022-11-14T17:44:14.240Z,15.87
2022-11-14T17:46:54.847Z,15.90
2022-11-14T17:49:35.156Z,16.17
2022-11-14T17:52:15.570Z,16.10
2022-11-14T17:54:56.049Z,15.57
2022-11-14T17:57:36.740Z,15.40
2022-11-14T18:00:17.971Z,15.43
2022-11-14T18:02:58.461Z,16.23
2022-11-14T18:05:39.109Z,15.57
2022-11-14T18:08:19.686Z,16.53
2022-11-14T18:11:06.122Z,16.83
2022-11-14T18:13:46.503Z,15.50
2022-11-14T18:16:44.519Z,15.80
2022-11-14T18:19:27.182Z,15.40
2022-11-14T18:22:07.888Z,15.10
2022-11-14T18:24:48.382Z,15.00
2022-11-14T18:27:28.702Z,14.50
2022-11-14T18:30:34.773Z,15.53
2022-11-14T18:33:11.183Z,15.77
2022-11-14T18:35:59.471Z,14.93
2022-11-14T18:38:41.757Z,16.07
2022-11-14T18:41:22.407Z,15.00
2022-11-14T18:44:05.352Z,14.80
2022-11-14T18:46:46.309Z,14.90
2022-11-14T18:49:28.418Z,15.03
2022-11-14T18:52:15.836Z,14.77
2022-11-14T18:54:57.677Z,14.37
2022-11-14T18:57:39.268Z,14.13
2022-11-14T19:00:21.271Z,15.00
2022-11-14T19:03:06.206Z,14.90
2022-11-14T19:05:47.325Z,14.60
2022-11-14T19:13:06.096Z,14.30
2022-11-14T19:19:57.075Z,14.87
2022-11-14T19:22:45.365Z,15.33
2022-11-14T19:25:25.824Z,15.83
2022-11-14T19:28:12.302Z,16.20
2022-11-14T19:35:20.432Z,15.43
2022-11-14T19:38:08.873Z,14.80
2022-11-14T19:41:22.901Z,14.87
2022-11-14T19:49:25.255Z,15.47
2022-11-14T19:52:24.350Z,14.90
2022-11-14T19:55:31.905Z,15.07
2022-11-14T20:07:22.224Z,14.23
2022-11-14T20:10:05.544Z,13.60
2022-11-14T20:12:46.101Z,14.17
2022-11-14T20:15:29.987Z,14.80
2022-11-14T20:18:10.171Z,13.80
2022-11-14T20:20:50.864Z,15.73
2022-11-14T20:23:59.399Z,13.23
2022-11-14T20:31:18.717Z,13.23
2022-11-14T20:39:35.150Z,12.93
2022-11-14T20:48:09.080Z,12.60
2022-11-14T20:50:49.769Z,12.17
2022-11-14T20:53:32.131Z,12.57
2022-11-14T20:56:22.408Z,12.03
2022-11-14T20:59:03.365Z,11.43
2022-11-14T21:01:44.363Z,12.67
2022-11-14T21:04:25.069Z,12.83
2022-11-14T21:07:05.596Z,12.33
2022-11-14T21:09:45.920Z,12.33
2022-11-14T21:12:26.491Z,12.50
2022-11-14T21:15:07.805Z,12.53
2022-11-14T21:17:48.096Z,13.33
2022-11-14T21:20:28.575Z,13.23
2022-11-14T21:23:08.826Z,13.10
2022-11-14T21:25:49.460Z,14.53
2022-11-14T21:28:32.579Z,13.73
2022-11-14T21:31:33.511Z,13.20
2022-11-14T21:34:17.820Z,13.13
2022-11-14T21:37:00.049Z,13.07
2022-11-14T21:39:40.440Z,13.40
2022-11-14T21:42:20.926Z,12.50
2022-11-14T21:45:01.287Z,12.67
2022-11-14T21:47:41.805Z,13.03
2022-11-14T21:50:22.693Z,12.47
2022-11-14T21:53:03.113Z,13.17
2022-11-14T21:55:45.406Z,12.87
2022-11-14T21:58:26.128Z,13.00
2022-11-14T22:01:10.742Z,13.47
2022-11-14T22:04:09.742Z,14.02
2022-11-14T22:06:50.078Z,14.30
2022-11-14T22:09:30.801Z,12.87
2022-11-14T22:12:11.279Z,14.57
2022-11-14T22:14:51.848Z,14.77
2022-11-14T22:17:32.463Z,14.70
2022-11-14T22:20:12.943Z,15.33
2022-11-14T22:22:54.644Z,15.07
2022-11-14T22:25:35.118Z,15.60
2022-11-14T22:28:15.748Z,15.47
2022-11-14T22:31:09.942Z,15.50
2022-11-14T22:33:53.541Z,15.60
2022-11-14T22:36:34.227Z,15.63
2022-11-14T22:39:14.399Z,16.23
2022-11-14T22:41:55.059Z,15.13
2022-11-14T22:44:35.727Z,15.70
2022-11-14T22:47:16.271Z,14.97
2022-11-14T22:49:56.766Z,15.37
2022-11-14T22:52:37.402Z,15.40
2022-11-14T22:55:18.481Z,15.70
2022-11-14T22:57:59.042Z,16.30
2022-11-14T23:00:40.015Z,16.30
2022-11-14T23:03:22.520Z,14.73
2022-11-14T23:06:15.594Z,15.73
2022-11-14T23:08:56.217Z,16.27
2022-11-14T23:11:37.109Z,15.33
2022-11-14T23:14:17.476Z,14.33
2022-11-14T23:16:57.727Z,14.77
2022-11-14T23:19:38.071Z,15.90
2022-11-14T23:22:18.489Z,14.90
2022-11-14T23:24:58.933Z,13.80
2022-11-14T23:27:39.397Z,15.27
2022-11-14T23:30:19.933Z,15.70
2022-11-14T23:33:00.131Z,15.70
2022-11-14T23:35:42.077Z,15.33
2022-11-14T23:38:22.498Z,14.73
2022-11-14T23:41:03.012Z,14.67
2022-11-14T23:43:43.703Z,15.87
2022-11-14T23:46:23.975Z,14.53
2022-11-14T23:49:04.371Z,15.00
2022-11-14T23:51:44.848Z,15.27
2022-11-14T23:54:25.472Z,14.93
2022-11-14T23:57:05.835Z,14.13
2022-11-14T23:59:46.336Z,15.10
